This is the latest recevied weather packets stored in our database for station/object WBKK. If no packets are shown the sender has not sent any weather packets the latest 1 day(s).
| Time | Temp. | Humidity | Pressure | Rain* | Wind** | Luminosity | Snow |
|---|---|---|---|---|---|---|---|
| 1778008328 | 25.56° C | 88% | 1006 hPa | - | 1.79 m/s, 120° | - | - |
| 1778006490 | 25.56° C | 88% | 1006 hPa | - | 2.24 m/s, 100° | - | - |
| 1778004758 | 25.56° C | 94% | 1007 hPa | - | 1.79 m/s, 120° | - | - |
| 1778002860 | 25.56° C | 94% | 1007 hPa | - | 1.79 m/s, 110° | - | - |
| 1778001127 | 25.56° C | 94% | 1007 hPa | - | 2.24 m/s, 100° | - | - |
| 1777999262 | 25.56° C | 94% | 1008 hPa | - | 1.79 m/s, 120° | - | - |
| 1777997530 | 25.56° C | 94% | 1008 hPa | - | 1.79 m/s, 120° | - | - |
| 1777995660 | 25.56° C | 94% | 1008 hPa | - | 2.24 m/s, 120° | - | - |
| 1777995124 | 25.56° C | 94% | 1008 hPa | - | 1.34 m/s, 110° | - | - |
| 1777994541 | 26.11° C | 82% | 1010 hPa | - | 0.45 m/s, 120° | - | - |
| 1777993927 | 25.56° C | 94% | 1008 hPa | - | 1.34 m/s, 110° | - | - |
| 1777992088 | 26.67° C | 88% | 1008 hPa | - | 1.34 m/s, 120° | - | - |
| 1777990332 | 26.67° C | 94% | 1008 hPa | - | 1.34 m/s, 120° | - | - |
| 1777988460 | 26.67° C | 88% | 1008 hPa | - | 2.24 m/s, 120° | - | - |
| 1777986756 | 26.67° C | 94% | 1008 hPa | - | 1.34 m/s, 110° | - | - |
| 1777984861 | 26.67° C | 94% | 1007 hPa | - | 0.89 m/s, 0° | - | - |
| 1777983128 | 26.67° C | 94% | 1007 hPa | - | 0.89 m/s, 0° | - | - |
| 1777981260 | 27.78° C | 88% | 1007 hPa | - | 1.79 m/s, 130° | - | - |
| 1777979529 | 27.78° C | 88% | 1007 hPa | - | 0.45 m/s, 0° | - | - |
| 1777977687 | 28.89° C | 83% | 1007 hPa | - | 0 m/s | - | - |
| 1777975932 | 30° C | 79% | 1006 hPa | - | 1.34 m/s, 0° | - | - |
| 1777974059 | 30° C | 79% | 1006 hPa | - | 1.34 m/s, 0° | - | - |
| 1777972351 | 30.56° C | 74% | 1005 hPa | - | 1.79 m/s, 0° | - | - |
| 1777970461 | 30.56° C | 74% | 1005 hPa | - | 2.24 m/s, 0° | - | - |
| 1777968728 | 30.56° C | 74% | 1005 hPa | - | 2.24 m/s, 0° | - | - |
* Rain since midnight (hover to see other rain measurements)
** Current wind speed in m/s (hover to see current wind gust speed)